Time;durP1;ratioP1;P1;durP2;ratioP2;P2;SDS_P1;SDS_P2;PMS_P1;PMS_P2;Temp;Humidity;BMP_temperature;BMP_pressure;BME280_temperature;BME280_humidity;BME280_pressure;Samples;Min_cycle;Max_cycle;Signal;HPM_P1;HPM_P2
2023/06/03 00:01:05;;;;;;;4.23;2.53;;;18.00;99.90;;;18.43;66.68;94693.59;5051502;28;20467;-54
2023/06/03 00:03:33;;;;;;;2.40;2.20;;;18.10;99.90;;;18.39;67.21;94700.34;5052733;28;20467;-63
2023/06/03 00:06:01;;;;;;;2.80;2.37;;;18.00;99.90;;;18.37;66.88;94691.72;5050904;28;20448;-55
2023/06/03 00:08:29;;;;;;;2.80;1.90;;;18.00;99.90;;;18.39;66.90;94690.50;5053681;28;20557;-65
2023/06/03 00:10:56;;;;;;;6.10;2.97;;;18.00;99.90;;;18.39;67.59;94684.38;5050171;28;20600;-64
2023/06/03 00:13:23;;;;;;;2.87;2.73;;;18.00;99.90;;;18.39;67.48;94679.03;5048756;28;20506;-64
2023/06/03 00:15:50;;;;;;;2.50;2.40;;;18.00;99.90;;;18.41;67.53;94685.81;5049227;28;20474;-53
2023/06/03 00:18:18;;;;;;;5.00;2.80;;;18.00;99.90;;;18.42;66.99;94679.47;5055411;28;20455;-64
2023/06/03 00:20:47;;;;;;;3.97;2.50;;;18.10;99.90;;;18.44;67.36;94682.75;5048545;28;20506;-53
2023/06/03 00:23:16;;;;;;;2.70;2.50;;;18.10;99.90;;;18.46;66.76;94677.25;5051883;28;20447;-64
2023/06/03 00:25:43;;;;;;;2.10;2.00;;;18.10;99.90;;;18.48;67.09;94671.72;5049878;28;20525;-54
2023/06/03 00:28:10;;;;;;;2.80;2.70;;;18.10;99.90;;;18.48;67.18;94677.84;5056355;28;20963;-65
2023/06/03 00:30:38;;;;;;;2.37;2.27;;;18.10;99.90;;;18.48;66.49;94671.72;5053186;28;20458;-64
2023/06/03 00:33:05;;;;;;;3.13;2.83;;;18.10;99.90;;;18.46;66.54;94675.38;5049027;28;20499;-54
2023/06/03 00:35:33;;;;;;;2.87;2.67;;;18.10;99.90;;;18.46;67.14;94672.72;5053289;28;20537;-63
2023/06/03 00:38:01;;;;;;;3.30;2.00;;;18.10;99.90;;;18.46;66.87;94674.56;5050053;28;20444;-63
2023/06/03 00:40:29;;;;;;;3.03;2.83;;;18.10;99.90;;;18.46;67.70;94675.38;5047816;28;20583;-55
2023/06/03 00:42:56;;;;;;;3.90;2.80;;;18.10;99.90;;;18.46;67.50;94674.56;5050646;28;20456;-56
2023/06/03 00:45:24;;;;;;;7.53;2.63;;;18.10;99.90;;;18.45;67.08;94683.56;5052045;28;20992;-56
2023/06/03 00:47:51;;;;;;;5.93;3.70;;;18.10;99.90;;;18.44;67.76;94676.63;5050200;28;20459;-57
2023/06/03 00:50:19;;;;;;;3.47;2.97;;;18.10;99.90;;;18.42;67.69;94674.16;5056274;28;20468;-57
2023/06/03 00:52:46;;;;;;;3.17;2.97;;;18.10;99.90;;;18.40;67.50;94670.03;5054430;28;20494;-56
2023/06/03 00:55:13;;;;;;;3.20;2.70;;;18.10;99.90;;;18.39;67.85;94671.06;5048825;28;20549;-64
2023/06/03 00:57:42;;;;;;;3.60;3.10;;;18.00;99.90;;;18.37;67.34;94665.06;5054016;28;20966;-65
2023/06/03 01:00:10;;;;;;;3.30;2.33;;;18.00;99.90;;;18.34;67.67;94671.63;5049354;28;20548;-54
2023/06/03 01:02:38;;;;;;;2.63;2.43;;;18.00;99.90;;;18.32;67.73;94670.16;5053235;28;20459;-56
2023/06/03 01:05:07;;;;;;;5.10;3.03;;;18.00;99.90;;;18.31;67.94;94668.50;5050576;28;20478;-65
2023/06/03 01:07:41;;;;;;;3.00;2.80;;;18.00;99.90;;;18.27;67.63;94662.75;5050812;28;20460;-56
2023/06/03 01:10:15;;;;;;;5.30;3.37;;;17.90;99.90;;;18.26;67.93;94661.09;5053297;28;20460;-56
2023/06/03 01:12:50;;;;;;;3.53;3.23;;;17.90;99.90;;;18.25;67.86;94656.81;5050586;28;21187;-56
2023/06/03 01:15:20;;;;;;;3.50;2.60;;;17.90;99.90;;;18.22;68.13;94662.53;5052909;28;20470;-55
2023/06/03 01:17:50;;;;;;;2.60;2.40;;;17.90;99.90;;;18.15;68.84;94657.13;5051503;28;20443;-58
2023/06/03 01:20:17;;;;;;;3.00;2.80;;;17.80;99.90;;;18.09;69.53;94657.88;5054831;28;20463;-63
2023/06/03 01:22:46;;;;;;;3.20;3.00;;;17.80;99.90;;;18.02;68.94;94659.69;5048368;28;20468;-64
2023/06/03 01:25:16;;;;;;;3.30;3.10;;;17.70;99.90;;;17.96;68.89;94653.28;5054017;28;20915;-64
2023/06/03 01:27:45;;;;;;;4.83;2.73;;;17.60;99.90;;;17.89;69.11;94653.22;5051807;28;20448;-64
2023/06/03 01:30:14;;;;;;;3.30;2.97;;;17.60;99.90;;;17.84;69.13;94650.25;5050532;28;20484;-56
2023/06/03 01:32:42;;;;;;;3.40;3.10;;;17.50;99.90;;;17.81;69.26;94661.28;5054389;28;20491;-55
2023/06/03 01:35:10;;;;;;;5.87;3.00;;;17.50;99.90;;;17.78;69.41;94659.00;5050491;28;21458;-55
2023/06/03 01:37:38;;;;;;;3.17;2.97;;;17.50;99.90;;;17.76;69.86;94663.69;5057028;28;20458;-64
2023/06/03 01:40:07;;;;;;;3.43;3.13;;;17.50;99.90;;;17.72;70.08;94660.59;5053727;28;20499;-55
2023/06/03 01:42:35;;;;;;;5.30;3.00;;;17.40;99.90;;;17.69;70.16;94663.63;5056453;28;20469;-55
2023/06/03 01:45:03;;;;;;;3.80;3.10;;;17.40;99.90;;;17.65;70.03;94656.22;5052325;28;21051;-64
2023/06/03 01:47:31;;;;;;;3.77;2.77;;;17.30;99.90;;;17.62;69.97;94664.59;5057430;28;20520;-63
2023/06/03 01:49:58;;;;;;;3.23;2.90;;;17.30;99.90;;;17.58;69.97;94656.13;5056284;28;20503;-63
2023/06/03 01:52:26;;;;;;;2.70;2.50;;;17.30;99.90;;;17.54;70.52;94657.53;5057908;28;20599;-55
2023/06/03 01:54:53;;;;;;;3.27;2.97;;;17.20;99.90;;;17.50;71.02;94654.41;5051899;28;21108;-55
2023/06/03 01:57:20;;;;;;;4.93;3.30;;;17.20;99.90;;;17.45;71.37;94659.47;5051122;28;20454;-54
2023/06/03 01:59:49;;;;;;;3.20;3.00;;;17.10;99.90;;;17.39;71.10;94658.38;5052475;28;20529;-54
2023/06/03 02:02:16;;;;;;;8.43;2.93;;;17.10;99.90;;;17.35;70.65;94653.63;5056888;28;20443;-64
2023/06/03 02:04:45;;;;;;;9.87;3.50;;;17.00;99.90;;;17.32;71.12;94659.31;5055933;28;20476;-62
2023/06/03 02:07:13;;;;;;;3.93;3.50;;;17.00;99.90;;;17.29;71.14;94657.88;5052997;28;21035;-65
2023/06/03 02:09:41;;;;;;;3.33;3.10;;;17.00;99.90;;;17.30;71.32;94664.81;5055374;28;20476;-64
2023/06/03 02:12:09;;;;;;;3.67;3.47;;;17.00;99.90;;;17.29;71.42;94662.34;5050508;28;20495;-56
2023/06/03 02:14:38;;;;;;;3.10;2.90;;;17.00;99.90;;;17.29;71.78;94668.50;5049269;28;20491;-53
2023/06/03 02:17:07;;;;;;;4.33;3.03;;;16.90;99.90;;;17.28;71.45;94671.34;5054411;28;21032;-57
2023/06/03 02:19:34;;;;;;;5.20;3.30;;;17.00;99.90;;;17.26;71.18;94670.69;5054999;28;20472;-63
2023/06/03 02:22:02;;;;;;;3.60;3.30;;;17.00;99.90;;;17.26;71.64;94678.66;5053505;28;20555;-64
2023/06/03 02:24:31;;;;;;;9.33;3.77;;;17.00;99.90;;;17.27;71.41;94669.69;5054177;28;20562;-56
2023/06/03 02:27:01;;;;;;;4.40;3.13;;;16.90;99.90;;;17.28;71.83;94676.66;5055936;28;20489;-65
2023/06/03 02:29:29;;;;;;;3.63;3.40;;;16.90;99.90;;;17.28;71.66;94689.97;5050542;28;20529;-64
2023/06/03 02:31:56;;;;;;;4.37;3.40;;;17.00;99.90;;;17.28;71.58;94679.34;5058703;28;20529;-65
2023/06/03 02:34:25;;;;;;;6.50;3.67;;;17.00;99.90;;;17.28;71.81;94676.66;5052024;28;20467;-54
2023/06/03 02:36:52;;;;;;;5.57;4.33;;;17.00;99.90;;;17.28;71.66;94682.00;5050909;28;20517;-55
2023/06/03 02:39:19;;;;;;;3.50;3.20;;;17.00;99.90;;;17.28;71.56;94682.81;5052578;28;20475;-55
2023/06/03 02:41:48;;;;;;;4.73;4.13;;;16.90;99.90;;;17.30;71.56;94693.25;5051501;28;20984;-57
2023/06/03 02:44:15;;;;;;;4.80;3.40;;;17.00;99.90;;;17.28;72.09;94685.47;5048569;28;20574;-56
2023/06/03 02:46:43;;;;;;;3.90;3.60;;;16.90;99.90;;;17.29;72.07;94684.47;5053638;28;20467;-54
2023/06/03 02:49:10;;;;;;;4.00;3.53;;;16.90;99.90;;;17.29;72.30;94695.09;5053139;28;20486;-64
2023/06/03 02:51:40;;;;;;;7.83;3.57;;;17.00;99.90;;;17.30;71.86;94690.59;5058001;28;20564;-55
2023/06/03 02:54:07;;;;;;;3.50;3.20;;;17.00;99.90;;;17.30;72.04;94696.72;5053290;28;20567;-63
2023/06/03 02:56:34;;;;;;;17.83;4.70;;;17.00;99.90;;;17.31;72.24;94692.25;5053719;28;20850;-62
2023/06/03 02:59:02;;;;;;;5.80;3.93;;;17.00;99.90;;;17.32;71.92;94705.34;5050168;28;20953;-63
2023/06/03 03:01:29;;;;;;;3.93;3.53;;;17.00;99.90;;;17.31;71.85;94695.72;5052496;28;20456;-63
2023/06/03 03:03:56;;;;;;;5.70;3.80;;;17.00;99.90;;;17.36;71.58;94714.59;5052687;28;20470;-64
2023/06/03 03:06:24;;;;;;;8.70;3.67;;;17.00;99.90;;;17.37;71.51;94705.63;5050993;28;21168;-53
2023/06/03 03:08:53;;;;;;;8.20;4.20;;;17.00;99.90;;;17.41;71.52;94711.38;5049745;28;20499;-65
2023/06/03 03:11:21;;;;;;;5.40;4.00;;;17.00;99.90;;;17.42;71.52;94714.88;5050223;28;20525;-64
2023/06/03 03:13:48;;;;;;;4.60;3.57;;;17.10;99.90;;;17.43;71.86;94714.69;5056536;28;20490;-53
2023/06/03 03:16:17;;;;;;;9.63;3.50;;;17.10;99.90;;;17.46;71.70;94714.31;5050446;28;20459;-63
2023/06/03 03:18:44;;;;;;;5.67;3.73;;;17.10;99.90;;;17.48;71.26;94720.28;5052597;28;20479;-56
2023/06/03 03:21:12;;;;;;;3.93;3.50;;;17.10;99.90;;;17.52;71.11;94724.22;5054480;28;20492;-55
2023/06/03 03:23:39;;;;;;;5.20;3.47;;;17.20;99.90;;;17.55;71.32;94733.63;5051057;28;20569;-64
2023/06/03 03:26:11;;;;;;;10.40;4.10;;;17.20;99.90;;;17.59;71.46;94731.44;5055703;28;20512;-64
2023/06/03 03:28:38;;;;;;;15.23;3.40;;;17.20;99.90;;;17.63;71.47;94735.38;5055173;28;20735;-64
2023/06/03 03:31:06;;;;;;;5.93;4.37;;;17.30;99.90;;;17.66;71.89;94740.31;5057485;28;20504;-63
2023/06/03 03:33:33;;;;;;;6.70;4.20;;;17.30;99.90;;;17.69;71.54;94742.59;5051035;28;20553;-64
2023/06/03 03:36:08;;;;;;;13.27;4.63;;;17.30;99.90;;;17.69;70.92;94734.63;5053682;28;20462;-63
2023/06/03 03:38:37;;;;;;;5.00;4.23;;;17.40;99.90;;;17.71;70.95;94729.94;5055314;28;20465;-63
2023/06/03 03:41:06;;;;;;;6.23;3.70;;;17.40;99.90;;;17.73;71.31;94738.56;5051230;28;20555;-63
2023/06/03 03:43:34;;;;;;;5.97;3.40;;;17.40;99.90;;;17.75;71.29;94731.22;5047752;28;20549;-63
2023/06/03 03:46:02;;;;;;;4.77;3.73;;;17.40;99.90;;;17.78;70.90;94740.66;5052243;28;20546;-54
2023/06/03 03:48:30;;;;;;;12.13;3.90;;;17.50;99.90;;;17.81;70.65;94743.75;5052255;28;20486;-64
2023/06/03 03:50:57;;;;;;;6.03;4.30;;;17.50;99.90;;;17.83;71.08;94741.75;5056983;28;20486;-64
2023/06/03 03:53:29;;;;;;;5.17;3.80;;;17.50;99.90;;;17.84;70.46;94738.06;5049655;28;20487;-56
2023/06/03 03:55:57;;;;;;;3.63;3.40;;;17.50;99.90;;;17.88;70.53;94741.19;5049474;28;20598;-65
2023/06/03 03:58:27;;;;;;;8.50;4.10;;;17.60;99.90;;;17.90;70.89;94747.97;5049231;28;20542;-64
2023/06/03 04:00:57;;;;;;;7.50;3.97;;;17.60;99.90;;;17.91;70.83;94744.31;5047092;28;21025;-63
2023/06/03 04:03:25;;;;;;;4.50;3.57;;;17.60;99.90;;;17.94;70.59;94750.28;5057367;28;20478;-55
2023/06/03 04:05:52;;;;;;;8.07;3.33;;;17.60;99.90;;;17.97;70.28;94756.06;5048875;28;20588;-64
2023/06/03 04:08:40;;;;;;;3.97;3.43;;;17.60;99.90;;;17.99;70.37;94750.56;5051155;28;20506;-55
2023/06/03 04:11:08;;;;;;;9.93;3.90;;;17.70;99.90;;;18.01;70.09;94753.84;5050979;28;20578;-54
2023/06/03 04:13:40;;;;;;;7.40;3.73;;;17.70;99.90;;;18.02;70.01;94753.66;5048487;28;20503;-64
2023/06/03 04:16:11;;;;;;;13.93;4.47;;;17.70;99.90;;;18.04;69.53;94751.63;5049450;28;20466;-54
2023/06/03 04:18:42;;;;;;;11.40;4.33;;;17.70;99.90;;;18.05;69.45;94749.78;5050374;28;20491;-54
2023/06/03 04:21:17;;;;;;;7.33;5.10;;;17.70;99.90;;;18.06;69.27;94754.09;5049697;28;21193;-64
2023/06/03 04:23:45;;;;;;;6.97;4.20;;;17.70;99.90;;;18.07;69.94;94761.06;5055560;28;20490;-55
2023/06/03 04:26:12;;;;;;;5.10;4.60;;;17.70;99.90;;;18.04;69.11;94762.25;5053320;28;20551;-56
2023/06/03 04:28:41;;;;;;;5.93;4.47;;;17.70;99.90;;;17.98;69.11;94756.88;5056615;28;20521;-65
2023/06/03 04:31:08;;;;;;;15.93;4.40;;;17.70;99.90;;;17.91;69.40;94754.97;5049243;28;20447;-55
2023/06/03 04:33:35;;;;;;;6.23;4.30;;;17.60;99.90;;;17.83;69.30;94759.53;5052536;28;20492;-55
2023/06/03 04:36:03;;;;;;;6.53;4.80;;;17.50;99.90;;;17.81;69.70;94762.38;5049016;28;20455;-55
2023/06/03 04:38:31;;;;;;;5.20;4.70;;;17.50;99.90;;;17.84;69.40;94759.34;5049977;28;20484;-63
2023/06/03 04:41:01;;;;;;;4.53;4.13;;;17.50;99.90;;;17.85;69.25;94757.53;5050708;28;20520;-57
2023/06/03 04:43:29;;;;;;;4.03;3.70;;;17.50;99.90;;;17.85;69.27;94750.38;5049793;28;20538;-56
2023/06/03 04:46:00;;;;;;;15.13;4.50;;;17.50;99.90;;;17.86;69.30;94760.00;5046907;28;20468;-64
2023/06/03 04:48:30;;;;;;;7.30;5.07;;;17.50;99.90;;;17.90;69.59;94755.97;5051251;28;20459;-57
2023/06/03 04:50:57;;;;;;;6.37;5.10;;;17.50;99.90;;;17.95;69.30;94762.56;5057044;28;20782;-55
2023/06/03 04:53:25;;;;;;;5.73;4.27;;;17.60;99.90;;;17.99;69.26;94766.53;5049255;28;20864;-55
2023/06/03 04:55:53;;;;;;;7.23;4.63;;;17.60;99.90;;;18.04;69.58;94762.25;5048363;28;20459;-65
2023/06/03 04:58:20;;;;;;;11.07;5.20;;;17.70;99.90;;;18.10;69.35;94761.50;5050901;28;20443;-64
2023/06/03 05:00:48;;;;;;;5.23;4.73;;;17.70;99.90;;;18.18;69.16;94765.88;5050882;28;20923;-57
2023/06/03 05:03:17;;;;;;;7.07;5.23;;;17.80;99.90;;;18.23;68.95;94766.16;5046139;28;20584;-56
2023/06/03 05:05:45;;;;;;;13.77;5.07;;;17.90;99.90;;;18.30;69.42;94771.53;5048790;28;20444;-56
2023/06/03 05:08:12;;;;;;;4.93;4.50;;;17.90;99.90;;;18.41;69.76;94778.19;5055528;28;20451;-66
2023/06/03 05:10:39;;;;;;;8.10;5.00;;;18.00;99.90;;;18.51;69.37;94770.69;5055124;28;20458;-64
2023/06/03 05:13:07;;;;;;;12.63;5.30;;;18.10;99.90;;;18.67;68.87;94776.75;5054192;28;20491;-55
2023/06/03 05:15:34;;;;;;;7.73;4.50;;;18.20;99.90;;;18.78;68.89;94766.41;5055664;28;20470;-65
2023/06/03 05:18:02;;;;;;;10.50;5.17;;;18.40;99.90;;;19.01;68.15;94768.06;5052157;28;20558;-66
2023/06/03 05:20:32;;;;;;;4.40;3.90;;;18.60;99.90;;;19.21;67.59;94773.53;5056861;28;20554;-57
2023/06/03 05:22:59;;;;;;;4.47;4.00;;;18.70;99.90;;;19.39;66.87;94769.50;5053465;28;20451;-68
2023/06/03 05:25:26;;;;;;;7.50;3.80;;;18.90;99.90;;;19.56;66.26;94773.50;5056846;28;20481;-56
2023/06/03 05:27:53;;;;;;;8.20;4.47;;;19.10;99.90;;;19.77;65.78;94788.63;5057704;28;20530;-66
2023/06/03 05:30:21;;;;;;;6.43;4.30;;;19.30;99.90;;;19.98;65.68;94781.50;5054362;28;20487;-57
2023/06/03 05:32:48;;;;;;;9.00;5.07;;;19.50;99.90;;;20.10;64.76;94787.09;5053225;28;20557;-55
2023/06/03 05:35:15;;;;;;;11.33;4.20;;;19.70;99.90;;;20.15;64.84;94784.63;5055148;28;20482;-54
2023/06/03 05:37:44;;;;;;;3.90;3.60;;;19.70;99.90;;;20.16;64.48;94786.28;5053701;28;20525;-55
2023/06/03 05:40:12;;;;;;;5.70;4.33;;;19.80;99.90;;;20.20;64.19;94787.50;5055363;28;20510;-56
2023/06/03 05:42:39;;;;;;;6.10;3.70;;;19.80;99.90;;;20.27;64.02;94798.22;5052704;28;20505;-53
2023/06/03 05:45:08;;;;;;;4.60;3.60;;;19.90;99.90;;;20.36;63.69;94787.16;5055882;28;21092;-57
2023/06/03 05:47:35;;;;;;;4.73;3.83;;;19.90;99.90;;;20.46;63.32;94781.41;5051966;28;21116;-54
2023/06/03 05:50:03;;;;;;;4.47;4.07;;;20.10;99.90;;;20.54;63.11;94783.06;5059346;28;20470;-55
2023/06/03 05:52:30;;;;;;;10.00;5.00;;;20.10;99.90;;;20.51;63.05;94778.13;5052363;28;20522;-55
2023/06/03 05:54:59;;;;;;;8.20;5.13;;;20.20;99.90;;;20.49;63.12;94782.84;5055598;28;20482;-57
2023/06/03 05:57:26;;;;;;;6.23;5.00;;;20.10;99.90;;;20.47;62.92;94782.25;5051574;28;20452;-55
2023/06/03 05:59:53;;;;;;;11.30;5.90;;;20.10;99.90;;;20.42;63.01;94783.66;5056108;28;20478;-56
2023/06/03 06:02:20;;;;;;;10.70;5.77;;;20.00;99.90;;;20.41;63.08;94787.34;5055396;28;20805;-64
2023/06/03 06:04:48;;;;;;;6.33;4.87;;;20.00;99.90;;;20.46;62.91;94786.75;5054096;28;20475;-65
2023/06/03 06:07:15;;;;;;;5.43;4.93;;;20.00;99.90;;;20.52;63.09;94787.78;5055878;28;20459;-56
2023/06/03 06:09:42;;;;;;;8.17;5.53;;;20.10;99.90;;;20.58;62.45;94786.97;5053067;28;20498;-56
2023/06/03 06:12:11;;;;;;;8.63;5.47;;;20.20;99.90;;;20.63;62.93;94789.84;5055803;28;20526;-54
2023/06/03 06:14:38;;;;;;;21.33;5.70;;;20.20;99.90;;;20.70;62.71;94788.06;5058313;28;20490;-65
2023/06/03 06:17:06;;;;;;;6.03;5.43;;;20.30;99.90;;;20.77;62.16;94788.88;5059284;28;20454;-64
2023/06/03 06:19:36;;;;;;;8.30;5.27;;;20.40;99.90;;;20.80;62.19;94792.16;5062644;28;21093;-56
2023/06/03 06:22:03;;;;;;;14.60;6.20;;;20.40;99.90;;;20.89;61.83;94801.63;5060588;28;20968;-65
2023/06/03 06:24:30;;;;;;;14.07;5.90;;;20.40;99.90;;;20.97;61.86;94801.41;5055941;28;20468;-55
2023/06/03 06:26:58;;;;;;;6.13;5.50;;;20.50;99.90;;;21.06;61.69;94788.66;5059047;28;20454;-55
2023/06/03 06:29:27;;;;;;;5.80;5.30;;;20.60;99.90;;;21.16;61.59;94783.69;5051567;28;20476;-64
2023/06/03 06:31:54;;;;;;;8.57;5.47;;;20.70;99.90;;;21.26;61.00;94786.78;5049482;28;20454;-54
2023/06/03 06:34:21;;;;;;;12.60;4.97;;;20.80;99.90;;;21.34;60.55;94787.59;5054712;28;20557;-57
2023/06/03 06:36:52;;;;;;;6.30;5.70;;;20.90;99.90;;;21.41;60.49;94783.88;5055444;28;20459;-56
2023/06/03 06:39:48;;;;;;;8.33;5.40;;;21.00;99.90;;;21.51;60.19;94783.47;5056727;28;20479;-56
2023/06/03 06:42:18;;;;;;;9.10;5.30;;;21.00;99.90;;;21.61;60.22;94788.38;5050839;28;20448;-64
2023/06/03 06:44:48;;;;;;;6.60;5.93;;;21.20;99.90;;;21.72;60.09;94785.06;5056775;28;20476;-57
2023/06/03 06:47:21;;;;;;;11.53;5.37;;;21.30;99.90;;;21.86;60.43;94783.16;5049112;28;20451;-63
2023/06/03 06:49:48;;;;;;;8.00;6.30;;;21.40;99.90;;;22.01;60.17;94793.59;5054956;28;20549;-55
2023/06/03 06:52:15;;;;;;;12.00;5.60;;;21.50;99.90;;;22.15;59.80;94779.13;5051857;28;20467;-55
2023/06/03 06:54:43;;;;;;;8.13;5.50;;;21.70;99.90;;;22.30;59.83;94781.53;5052936;28;21056;-56
2023/06/03 06:57:10;;;;;;;8.90;6.33;;;21.80;99.90;;;22.46;59.47;94792.75;5055022;28;20455;-55
2023/06/03 06:59:37;;;;;;;12.17;5.50;;;22.00;99.90;;;22.61;59.77;94792.47;5051596;28;20481;-56
2023/06/03 07:02:06;;;;;;;10.33;4.37;;;22.10;99.90;;;22.72;59.04;94797.94;5056177;28;20451;-65
2023/06/03 07:04:33;;;;;;;7.17;5.00;;;22.20;99.90;;;22.83;58.84;94800.97;5050661;28;20495;-64
2023/06/03 07:07:00;;;;;;;8.30;4.40;;;22.30;99.90;;;22.96;58.56;94808.09;5057620;28;20503;-55
2023/06/03 07:09:28;;;;;;;10.30;4.70;;;22.50;99.90;;;23.08;58.45;94792.91;5049964;28;20908;-64
2023/06/03 07:11:55;;;;;;;6.67;4.50;;;22.60;99.90;;;23.19;58.38;94800.31;5052211;28;20608;-56
2023/06/03 07:14:22;;;;;;;7.17;3.93;;;22.70;99.80;;;23.31;57.95;94799.56;5052598;28;20502;-64
2023/06/03 07:16:49;;;;;;;5.53;3.77;;;22.80;99.40;;;23.45;56.98;94798.41;5054708;28;20504;-55
2023/06/03 07:19:18;;;;;;;8.17;4.17;;;22.90;99.20;;;23.57;57.21;94803.88;5052243;28;20479;-54
2023/06/03 07:21:45;;;;;;;8.43;3.70;;;23.00;99.30;;;23.70;57.22;94810.94;5052900;28;20459;-62
2023/06/03 07:24:12;;;;;;;7.50;3.53;;;23.20;98.90;;;23.82;56.65;94809.16;5052922;28;20879;-55
2023/06/03 07:26:40;;;;;;;3.70;3.40;;;23.30;98.70;;;23.91;56.43;94815.09;5053306;28;21028;-55
2023/06/03 07:29:08;;;;;;;3.90;3.60;;;23.40;98.40;;;23.95;56.53;94814.41;5049836;28;20475;-65
2023/06/03 07:31:36;;;;;;;4.03;3.60;;;23.50;98.30;;;24.04;55.28;94819.47;5052436;28;20951;-63
2023/06/03 07:34:04;;;;;;;23.87;4.17;;;23.50;97.80;;;24.12;56.09;94814.63;5048622;28;20506;-55
2023/06/03 07:36:33;;;;;;;6.63;2.50;;;23.60;97.90;;;24.25;55.19;94826.25;5057021;28;20972;-65
2023/06/03 07:39:06;;;;;;;10.30;3.40;;;23.70;97.80;;;24.34;55.88;94824.91;5051790;28;20474;-56
2023/06/03 07:41:41;;;;;;;15.07;4.50;;;23.80;97.60;;;24.42;54.36;94829.97;5051738;28;20505;-66
2023/06/03 07:44:10;;;;;;;5.30;3.10;;;23.90;96.80;;;24.50;55.07;94826.94;5049691;28;21106;-54
2023/06/03 07:46:42;;;;;;;3.73;3.00;;;24.00;97.10;;;24.56;54.82;94822.53;5051656;28;20505;-57
2023/06/03 07:49:11;;;;;;;5.83;4.27;;;24.10;96.80;;;24.67;54.24;94843.28;5052267;28;20463;-68
2023/06/03 07:51:43;;;;;;;3.10;2.87;;;24.10;96.20;;;24.80;53.60;94830.69;5049756;28;20512;-56
2023/06/03 07:54:10;;;;;;;3.77;2.90;;;24.30;96.20;;;24.98;53.38;94843.28;5052103;28;20545;-55
2023/06/03 07:56:37;;;;;;;2.90;2.70;;;24.40;96.00;;;25.07;53.72;94841.88;5049571;28;20539;-57
2023/06/03 07:59:06;;;;;;;2.97;2.60;;;24.50;95.70;;;25.17;53.29;94841.31;5052801;28;20478;-56
2023/06/03 08:01:35;;;;;;;2.50;2.30;;;24.60;95.70;;;25.29;52.75;94844.88;5049610;28;20455;-68
2023/06/03 08:04:04;;;;;;;2.30;2.17;;;24.70;95.40;;;25.48;52.62;94848.28;5052229;28;20478;-56
2023/06/03 08:06:32;;;;;;;2.90;2.70;;;24.90;95.20;;;25.67;50.30;94840.91;5055611;28;20447;-56
2023/06/03 08:09:01;;;;;;;3.83;2.60;;;25.10;93.40;;;25.85;51.24;94849.91;5053906;28;20524;-64
2023/06/03 08:11:28;;;;;;;2.70;2.33;;;25.20;93.90;;;25.99;51.01;94847.81;5050291;28;21085;-65
2023/06/03 08:13:56;;;;;;;3.43;2.20;;;25.40;93.60;;;26.11;50.80;94841.34;5052634;28;20490;-66
2023/06/03 08:16:24;;;;;;;4.80;2.20;;;25.60;93.20;;;26.29;50.30;94842.25;5050696;28;20478;-55
2023/06/03 08:18:54;;;;;;;1.97;1.87;;;25.70;92.60;;;26.47;50.27;94835.84;5053557;28;20478;-65
2023/06/03 08:21:30;;;;;;;1.60;1.50;;;25.90;92.60;;;26.74;48.87;94838.81;5050528;28;20979;-65
2023/06/03 08:23:57;;;;;;;5.80;2.73;;;26.20;91.80;;;27.01;49.01;94835.50;5051226;28;20502;-55
2023/06/03 08:26:26;;;;;;;2.47;2.30;;;26.40;91.20;;;27.24;48.33;94837.25;5051145;28;20838;-57
2023/06/03 08:28:53;;;;;;;5.57;2.77;;;26.70;90.70;;;27.47;47.87;94839.00;5052543;28;20467;-57
2023/06/03 08:31:21;;;;;;;3.10;2.80;;;26.90;90.00;;;27.69;47.00;94838.22;5051004;28;20889;-54
2023/06/03 08:33:48;;;;;;;3.17;2.97;;;27.10;88.90;;;27.93;46.67;94836.13;5050634;28;20483;-69
2023/06/03 08:36:16;;;;;;;3.70;2.53;;;27.30;87.20;;;28.14;46.51;94837.25;5048474;28;20455;-69
2023/06/03 08:38:43;;;;;;;13.03;8.37;;;27.50;87.00;;;28.30;45.97;94840.16;5055040;28;20475;-67
2023/06/03 08:41:10;;;;;;;3.70;3.50;;;27.70;85.70;;;28.48;45.17;94837.13;5054875;28;20970;-55
2023/06/03 08:43:48;;;;;;;5.97;3.43;;;27.90;84.00;;;28.55;44.42;94840.44;5054042;28;20471;-55
2023/06/03 08:46:23;;;;;;;42.70;26.83;;;28.00;81.50;;;28.70;44.76;94845.22;5053587;28;20458;-56
2023/06/03 08:48:58;;;;;;;23.37;15.80;;;28.10;81.10;;;28.94;43.60;94843.03;5053209;28;20467;-65
2023/06/03 08:51:25;;;;;;;7.73;6.40;;;28.30;81.20;;;29.17;43.59;94841.06;5053238;28;20470;-67
2023/06/03 08:53:55;;;;;;;7.17;6.47;;;28.60;79.60;;;29.33;42.56;94833.94;5049011;28;20537;-55
2023/06/03 08:56:22;;;;;;;4.17;3.33;;;28.70;76.60;;;29.41;43.49;94847.00;5060367;28;20512;-64
2023/06/03 08:58:56;;;;;;;3.83;2.47;;;28.80;76.30;;;29.44;43.01;94835.63;5056843;28;20554;-67
2023/06/03 09:01:28;;;;;;;7.50;4.27;;;28.90;75.10;;;29.29;42.81;94836.31;5059167;28;20504;-64
2023/06/03 09:03:56;;;;;;;6.50;3.43;;;28.80;74.20;;;29.16;43.66;94834.03;5047813;28;20554;-55
2023/06/03 09:06:23;;;;;;;5.90;3.53;;;28.60;74.80;;;29.08;42.54;94842.59;5050061;28;20466;-57
2023/06/03 09:08:51;;;;;;;3.07;2.87;;;28.60;74.30;;;29.00;42.90;94834.97;5053322;28;21108;-65
2023/06/03 09:11:19;;;;;;;3.33;2.30;;;28.50;74.40;;;28.81;42.79;94834.50;5046953;28;20538;-66
2023/06/03 09:13:47;;;;;;;5.63;3.67;;;28.30;74.20;;;28.70;43.80;94828.19;5052775;28;21002;-67
2023/06/03 09:16:15;;;;;;;3.20;2.90;;;28.20;74.50;;;28.71;44.06;94827.13;5048306;28;20530;-66
2023/06/03 09:18:43;;;;;;;5.33;2.97;;;28.20;74.50;;;28.71;43.49;94827.91;5053978;28;20470;-69
2023/06/03 09:21:11;;;;;;;3.67;3.33;;;28.20;74.00;;;28.76;43.22;94824.44;5049110;28;20451;-69
2023/06/03 09:23:40;;;;;;;10.33;4.83;;;28.20;74.20;;;28.91;42.98;94829.22;5055989;28;20577;-54
2023/06/03 09:26:07;;;;;;;3.30;2.37;;;28.30;74.20;;;29.06;42.65;94818.50;5048913;28;20509;-55
2023/06/03 09:28:35;;;;;;;8.53;4.50;;;28.50;73.40;;;29.20;43.08;94820.81;5049154;28;20548;-67
2023/06/03 09:31:03;;;;;;;3.30;2.97;;;28.60;72.80;;;29.28;42.78;94813.03;5049339;28;20704;-56
2023/06/03 09:33:31;;;;;;;6.20;3.33;;;28.70;72.30;;;29.35;41.93;94814.72;5052579;28;20231;-65
2023/06/03 09:36:10;;;;;;;21.60;7.07;;;28.80;71.80;;;29.31;42.01;94806.25;5048691;28;20237;-66
2023/06/03 09:38:48;;;;;;;2.43;2.33;;;28.80;70.90;;;29.33;41.17;94799.53;5052892;28;20485;-67
2023/06/03 09:41:16;;;;;;;2.97;2.80;;;28.70;70.00;;;29.33;41.21;94796.81;5052166;28;20277;-58
2023/06/03 09:43:54;;;;;;;4.77;3.03;;;28.80;70.30;;;29.28;41.14;94799.50;5049856;28;20307;-56
2023/06/03 09:46:21;;;;;;;6.93;4.20;;;28.80;69.70;;;29.32;41.65;94800.59;5048358;28;20331;-54
2023/06/03 09:48:50;;;;;;;9.73;3.70;;;28.70;70.50;;;29.42;42.01;94796.31;5049325;28;20256;-56
2023/06/03 09:51:17;;;;;;;4.83;2.53;;;28.80;71.00;;;29.56;42.65;94796.69;5055421;28;20216;-64
2023/06/03 09:53:44;;;;;;;6.70;4.00;;;28.90;70.70;;;29.60;42.11;94785.06;5052766;28;20844;-66
2023/06/03 09:56:25;;;;;;;7.70;3.60;;;29.10;69.90;;;29.65;42.41;94784.28;5057217;28;20204;-54
2023/06/03 09:59:12;;;;;;;15.00;2.97;;;29.10;70.20;;;29.71;42.61;94785.13;5051315;28;20539;-55
2023/06/03 10:01:39;;;;;;;8.50;2.60;;;29.10;70.40;;;29.71;41.06;94787.84;5052243;28;20300;-68
2023/06/03 10:04:08;;;;;;;11.33;3.23;;;29.20;68.60;;;29.68;41.45;94787.28;5057344;28;20220;-67
2023/06/03 10:06:36;;;;;;;5.50;3.10;;;29.10;68.50;;;29.72;42.19;94794.91;5055974;28;20220;-68
2023/06/03 10:09:20;;;;;;;8.10;3.70;;;29.20;68.60;;;29.65;40.66;94787.81;5053166;28;21076;-57
2023/06/03 10:11:48;;;;;;;15.50;9.00;;;29.20;67.30;;;29.51;41.60;94786.63;5060236;28;20220;-55
2023/06/03 10:14:17;;;;;;;3.10;2.90;;;29.00;67.60;;;29.53;40.89;94799.91;5054641;28;20235;-70
2023/06/03 10:17:02;;;;;;;2.50;2.30;;;28.90;68.20;;;29.60;41.00;94782.34;5053751;28;20200;-56
2023/06/03 10:19:33;;;;;;;10.03;4.03;;;29.00;68.40;;;29.68;41.13;94779.16;5058947;28;20278;-54
2023/06/03 10:22:00;;;;;;;3.63;3.17;;;29.10;68.50;;;29.84;42.09;94773.84;5048910;28;20224;-68
2023/06/03 10:24:28;;;;;;;14.20;7.63;;;29.20;69.40;;;30.00;41.74;94783.69;5051310;28;20228;-67